sensor_id;sensor_type;location;lat;lon;timestamp;temperature;humidity
75769;DHT22;64379;48.888;8.330;2022-11-15T00:00:51;9.20;78.30
75769;DHT22;64379;48.888;8.330;2022-11-15T00:03:18;9.20;77.90
75769;DHT22;64379;48.888;8.330;2022-11-15T00:05:44;9.00;78.30
75769;DHT22;64379;48.888;8.330;2022-11-15T00:08:11;9.20;78.20
75769;DHT22;64379;48.888;8.330;2022-11-15T00:10:37;9.20;77.50
75769;DHT22;64379;48.888;8.330;2022-11-15T00:13:12;9.00;77.90
75769;DHT22;64379;48.888;8.330;2022-11-15T00:15:39;8.80;78.80
75769;DHT22;64379;48.888;8.330;2022-11-15T00:18:05;9.00;78.10
75769;DHT22;64379;48.888;8.330;2022-11-15T00:20:33;8.90;78.50
75769;DHT22;64379;48.888;8.330;2022-11-15T00:22:59;9.00;78.20
75769;DHT22;64379;48.888;8.330;2022-11-15T00:25:25;9.00;78.30
75769;DHT22;64379;48.888;8.330;2022-11-15T00:27:50;8.80;79.10
75769;DHT22;64379;48.888;8.330;2022-11-15T00:30:19;8.60;79.50
75769;DHT22;64379;48.888;8.330;2022-11-15T00:32:45;8.40;80.20
75769;DHT22;64379;48.888;8.330;2022-11-15T00:35:11;8.60;79.70
75769;DHT22;64379;48.888;8.330;2022-11-15T00:37:36;8.60;79.80
75769;DHT22;64379;48.888;8.330;2022-11-15T00:40:02;8.70;79.40
75769;DHT22;64379;48.888;8.330;2022-11-15T00:42:27;8.70;79.60
75769;DHT22;64379;48.888;8.330;2022-11-15T00:44:53;9.00;79.10
75769;DHT22;64379;48.888;8.330;2022-11-15T00:47:18;9.00;78.60
75769;DHT22;64379;48.888;8.330;2022-11-15T00:49:44;9.10;77.90
75769;DHT22;64379;48.888;8.330;2022-11-15T00:52:10;9.20;77.70
75769;DHT22;64379;48.888;8.330;2022-11-15T00:54:35;9.20;77.50
75769;DHT22;64379;48.888;8.330;2022-11-15T00:57:01;9.00;78.60
75769;DHT22;64379;48.888;8.330;2022-11-15T00:59:26;8.90;79.00
75769;DHT22;64379;48.888;8.330;2022-11-15T01:01:52;9.10;78.40
75769;DHT22;64379;48.888;8.330;2022-11-15T01:04:17;9.10;78.40
75769;DHT22;64379;48.888;8.330;2022-11-15T01:06:43;9.20;77.80
75769;DHT22;64379;48.888;8.330;2022-11-15T01:09:09;9.40;77.20
75769;DHT22;64379;48.888;8.330;2022-11-15T01:11:34;9.50;77.10
75769;DHT22;64379;48.888;8.330;2022-11-15T01:14:00;9.30;77.60
75769;DHT22;64379;48.888;8.330;2022-11-15T01:16:25;9.20;78.10
75769;DHT22;64379;48.888;8.330;2022-11-15T01:18:51;9.20;78.00
75769;DHT22;64379;48.888;8.330;2022-11-15T01:21:18;9.20;77.90
75769;DHT22;64379;48.888;8.330;2022-11-15T01:23:44;9.20;77.70
75769;DHT22;64379;48.888;8.330;2022-11-15T01:26:13;9.20;78.00
75769;DHT22;64379;48.888;8.330;2022-11-15T01:28:40;9.40;77.70
75769;DHT22;64379;48.888;8.330;2022-11-15T01:31:15;9.40;77.60
75769;DHT22;64379;48.888;8.330;2022-11-15T01:33:41;9.50;76.60
75769;DHT22;64379;48.888;8.330;2022-11-15T01:36:12;9.50;76.50
75769;DHT22;64379;48.888;8.330;2022-11-15T01:38:38;9.40;76.60
75769;DHT22;64379;48.888;8.330;2022-11-15T01:41:04;9.40;76.90
75769;DHT22;64379;48.888;8.330;2022-11-15T01:43:33;9.40;77.20
75769;DHT22;64379;48.888;8.330;2022-11-15T01:46:09;9.40;77.50
75769;DHT22;64379;48.888;8.330;2022-11-15T01:48:42;9.30;77.90
75769;DHT22;64379;48.888;8.330;2022-11-15T01:51:11;9.40;78.10
75769;DHT22;64379;48.888;8.330;2022-11-15T01:53:40;9.40;78.00
75769;DHT22;64379;48.888;8.330;2022-11-15T01:56:11;9.30;78.90
75769;DHT22;64379;48.888;8.330;2022-11-15T01:58:40;9.50;78.20
75769;DHT22;64379;48.888;8.330;2022-11-15T02:01:06;9.20;79.50
75769;DHT22;64379;48.888;8.330;2022-11-15T02:03:59;9.10;79.70
75769;DHT22;64379;48.888;8.330;2022-11-15T02:06:26;9.20;79.30
75769;DHT22;64379;48.888;8.330;2022-11-15T02:08:53;9.20;79.40
75769;DHT22;64379;48.888;8.330;2022-11-15T02:11:19;9.50;78.10
75769;DHT22;64379;48.888;8.330;2022-11-15T02:13:45;9.60;77.60
75769;DHT22;64379;48.888;8.330;2022-11-15T02:16:27;9.60;77.30
75769;DHT22;64379;48.888;8.330;2022-11-15T02:18:57;9.70;77.20
75769;DHT22;64379;48.888;8.330;2022-11-15T02:32:46;9.50;78.30
75769;DHT22;64379;48.888;8.330;2022-11-15T02:38:21;9.50;78.10
75769;DHT22;64379;48.888;8.330;2022-11-15T02:40:57;9.40;78.20
75769;DHT22;64379;48.888;8.330;2022-11-15T02:43:50;9.60;78.00
75769;DHT22;64379;48.888;8.330;2022-11-15T02:46:38;9.60;78.00
75769;DHT22;64379;48.888;8.330;2022-11-15T02:49:26;9.60;78.00
75769;DHT22;64379;48.888;8.330;2022-11-15T02:51:55;9.80;77.70
75769;DHT22;64379;48.888;8.330;2022-11-15T02:54:26;9.80;77.70
75769;DHT22;64379;48.888;8.330;2022-11-15T02:57:06;10.00;77.20
75769;DHT22;64379;48.888;8.330;2022-11-15T03:02:35;10.00;76.90
75769;DHT22;64379;48.888;8.330;2022-11-15T03:10:31;9.60;78.90
75769;DHT22;64379;48.888;8.330;2022-11-15T03:13:04;9.50;79.40
75769;DHT22;64379;48.888;8.330;2022-11-15T03:15:40;9.50;79.50
75769;DHT22;64379;48.888;8.330;2022-11-15T03:18:19;9.60;79.30
75769;DHT22;64379;48.888;8.330;2022-11-15T03:20:46;9.70;79.40
75769;DHT22;64379;48.888;8.330;2022-11-15T03:23:12;10.00;78.20
75769;DHT22;64379;48.888;8.330;2022-11-15T03:25:41;9.80;78.90
75769;DHT22;64379;48.888;8.330;2022-11-15T03:28:12;10.00;78.30
75769;DHT22;64379;48.888;8.330;2022-11-15T03:30:39;10.00;78.30
75769;DHT22;64379;48.888;8.330;2022-11-15T03:33:06;9.70;79.30
75769;DHT22;64379;48.888;8.330;2022-11-15T03:35:37;9.90;78.90
75769;DHT22;64379;48.888;8.330;2022-11-15T03:38:25;9.90;78.50
75769;DHT22;64379;48.888;8.330;2022-11-15T03:41:03;10.00;78.20
75769;DHT22;64379;48.888;8.330;2022-11-15T03:46:58;9.80;78.30
75769;DHT22;64379;48.888;8.330;2022-11-15T03:49:04;9.40;80.00
75769;DHT22;64379;48.888;8.330;2022-11-15T03:51:31;9.80;79.10
75769;DHT22;64379;48.888;8.330;2022-11-15T03:53:57;9.70;78.70
75769;DHT22;64379;48.888;8.330;2022-11-15T03:56:23;9.70;78.90
75769;DHT22;64379;48.888;8.330;2022-11-15T03:58:48;9.70;78.90
75769;DHT22;64379;48.888;8.330;2022-11-15T04:01:14;9.60;79.20
75769;DHT22;64379;48.888;8.330;2022-11-15T04:03:39;9.50;79.40
75769;DHT22;64379;48.888;8.330;2022-11-15T04:06:05;9.40;79.90
75769;DHT22;64379;48.888;8.330;2022-11-15T04:08:31;9.40;79.80
75769;DHT22;64379;48.888;8.330;2022-11-15T04:10:56;9.70;79.20
75769;DHT22;64379;48.888;8.330;2022-11-15T04:13:22;9.60;79.40
75769;DHT22;64379;48.888;8.330;2022-11-15T04:15:47;9.70;79.00
75769;DHT22;64379;48.888;8.330;2022-11-15T04:18:13;10.00;78.10
75769;DHT22;64379;48.888;8.330;2022-11-15T04:20:38;9.80;78.10
75769;DHT22;64379;48.888;8.330;2022-11-15T04:23:23;9.70;79.00
75769;DHT22;64379;48.888;8.330;2022-11-15T04:26:18;9.80;78.80
75769;DHT22;64379;48.888;8.330;2022-11-15T04:28:47;9.60;79.40
75769;DHT22;64379;48.888;8.330;2022-11-15T04:31:32;9.80;78.60
75769;DHT22;64379;48.888;8.330;2022-11-15T04:33:57;9.70;79.50
75769;DHT22;64379;48.888;8.330;2022-11-15T04:36:23;9.80;79.00
75769;DHT22;64379;48.888;8.330;2022-11-15T04:39:08;10.00;77.70
75769;DHT22;64379;48.888;8.330;2022-11-15T04:41:34;9.70;79.00
75769;DHT22;64379;48.888;8.330;2022-11-15T04:43:59;9.90;78.40
75769;DHT22;64379;48.888;8.330;2022-11-15T04:46:25;9.70;78.70
75769;DHT22;64379;48.888;8.330;2022-11-15T04:48:52;9.70;77.90
75769;DHT22;64379;48.888;8.330;2022-11-15T04:51:18;9.80;77.70
75769;DHT22;64379;48.888;8.330;2022-11-15T04:53:46;9.60;78.00
75769;DHT22;64379;48.888;8.330;2022-11-15T04:56:12;9.40;78.70
75769;DHT22;64379;48.888;8.330;2022-11-15T04:58:38;9.40;78.60
75769;DHT22;64379;48.888;8.330;2022-11-15T05:01:13;9.20;79.80
75769;DHT22;64379;48.888;8.330;2022-11-15T05:03:40;9.20;80.20
75769;DHT22;64379;48.888;8.330;2022-11-15T05:06:25;9.30;80.00
75769;DHT22;64379;48.888;8.330;2022-11-15T05:08:50;9.60;79.20
75769;DHT22;64379;48.888;8.330;2022-11-15T05:11:16;9.60;79.40
75769;DHT22;64379;48.888;8.330;2022-11-15T05:13:41;9.60;79.60
75769;DHT22;64379;48.888;8.330;2022-11-15T05:16:07;9.50;79.70
75769;DHT22;64379;48.888;8.330;2022-11-15T05:18:32;9.50;80.20
75769;DHT22;64379;48.888;8.330;2022-11-15T05:21:06;9.40;80.10
75769;DHT22;64379;48.888;8.330;2022-11-15T05:23:32;9.60;80.00
75769;DHT22;64379;48.888;8.330;2022-11-15T05:26:02;9.30;80.60
75769;DHT22;64379;48.888;8.330;2022-11-15T05:28:28;9.50;80.30
75769;DHT22;64379;48.888;8.330;2022-11-15T05:30:59;9.80;79.00
75769;DHT22;64379;48.888;8.330;2022-11-15T05:33:25;9.80;78.60
75769;DHT22;64379;48.888;8.330;2022-11-15T05:35:55;9.70;79.00
75769;DHT22;64379;48.888;8.330;2022-11-15T05:38:23;9.70;79.00
75769;DHT22;64379;48.888;8.330;2022-11-15T05:40:49;9.60;79.00
75769;DHT22;64379;48.888;8.330;2022-11-15T05:43:14;9.50;79.20
75769;DHT22;64379;48.888;8.330;2022-11-15T05:45:40;9.60;78.60
75769;DHT22;64379;48.888;8.330;2022-11-15T05:48:07;9.50;78.60
75769;DHT22;64379;48.888;8.330;2022-11-15T05:50:35;9.30;80.00
75769;DHT22;64379;48.888;8.330;2022-11-15T05:53:01;9.30;80.00
75769;DHT22;64379;48.888;8.330;2022-11-15T05:55:27;9.40;80.10
75769;DHT22;64379;48.888;8.330;2022-11-15T05:57:53;9.20;80.40
75769;DHT22;64379;48.888;8.330;2022-11-15T06:00:18;9.20;80.50
75769;DHT22;64379;48.888;8.330;2022-11-15T06:02:44;9.40;79.60
75769;DHT22;64379;48.888;8.330;2022-11-15T06:05:09;9.20;79.80
75769;DHT22;64379;48.888;8.330;2022-11-15T06:07:38;9.30;79.20
75769;DHT22;64379;48.888;8.330;2022-11-15T06:10:04;9.30;79.40
75769;DHT22;64379;48.888;8.330;2022-11-15T06:12:29;9.40;79.10
75769;DHT22;64379;48.888;8.330;2022-11-15T06:14:55;9.20;79.90
75769;DHT22;64379;48.888;8.330;2022-11-15T06:17:21;9.30;79.80
75769;DHT22;64379;48.888;8.330;2022-11-15T06:19:46;9.20;80.00
75769;DHT22;64379;48.888;8.330;2022-11-15T06:22:12;9.50;79.20
75769;DHT22;64379;48.888;8.330;2022-11-15T06:24:37;9.40;79.40
75769;DHT22;64379;48.888;8.330;2022-11-15T06:27:03;9.70;78.70
75769;DHT22;64379;48.888;8.330;2022-11-15T06:29:28;9.50;79.00
75769;DHT22;64379;48.888;8.330;2022-11-15T06:31:54;9.50;79.00
75769;DHT22;64379;48.888;8.330;2022-11-15T06:34:20;9.60;78.70
75769;DHT22;64379;48.888;8.330;2022-11-15T06:36:45;9.60;78.80
75769;DHT22;64379;48.888;8.330;2022-11-15T06:39:11;9.60;78.40
75769;DHT22;64379;48.888;8.330;2022-11-15T06:41:36;9.60;78.50
75769;DHT22;64379;48.888;8.330;2022-11-15T06:44:02;9.70;78.40
75769;DHT22;64379;48.888;8.330;2022-11-15T06:46:28;9.60;78.90
75769;DHT22;64379;48.888;8.330;2022-11-15T06:48:54;9.40;79.70
75769;DHT22;64379;48.888;8.330;2022-11-15T06:51:20;9.60;78.70
75769;DHT22;64379;48.888;8.330;2022-11-15T06:53:46;9.60;78.40
75769;DHT22;64379;48.888;8.330;2022-11-15T06:56:11;9.40;79.30
75769;DHT22;64379;48.888;8.330;2022-11-15T06:58:37;9.20;80.30
75769;DHT22;64379;48.888;8.330;2022-11-15T07:01:08;9.40;80.10
75769;DHT22;64379;48.888;8.330;2022-11-15T07:03:35;9.70;79.00
75769;DHT22;64379;48.888;8.330;2022-11-15T07:06:01;9.70;78.90
75769;DHT22;64379;48.888;8.330;2022-11-15T07:08:28;9.50;79.40
75769;DHT22;64379;48.888;8.330;2022-11-15T07:10:54;9.50;80.00
75769;DHT22;64379;48.888;8.330;2022-11-15T07:13:23;9.70;79.40
75769;DHT22;64379;48.888;8.330;2022-11-15T07:15:49;9.80;79.10
75769;DHT22;64379;48.888;8.330;2022-11-15T07:18:14;9.90;78.90
75769;DHT22;64379;48.888;8.330;2022-11-15T07:20:40;10.00;78.90
75769;DHT22;64379;48.888;8.330;2022-11-15T07:23:05;10.10;78.00
75769;DHT22;64379;48.888;8.330;2022-11-15T07:25:31;10.10;77.80
75769;DHT22;64379;48.888;8.330;2022-11-15T07:27:58;10.00;78.30
75769;DHT22;64379;48.888;8.330;2022-11-15T07:30:24;9.80;78.60
75769;DHT22;64379;48.888;8.330;2022-11-15T07:32:58;9.70;79.60
75769;DHT22;64379;48.888;8.330;2022-11-15T07:35:25;10.00;78.60
75769;DHT22;64379;48.888;8.330;2022-11-15T07:37:56;10.10;77.90
75769;DHT22;64379;48.888;8.330;2022-11-15T07:40:23;10.20;77.70
75769;DHT22;64379;48.888;8.330;2022-11-15T07:42:48;10.10;78.10
75769;DHT22;64379;48.888;8.330;2022-11-15T07:45:23;10.10;78.60
75769;DHT22;64379;48.888;8.330;2022-11-15T07:47:51;10.30;77.80
75769;DHT22;64379;48.888;8.330;2022-11-15T07:50:17;10.40;77.50
75769;DHT22;64379;48.888;8.330;2022-11-15T07:52:43;10.40;77.50
75769;DHT22;64379;48.888;8.330;2022-11-15T07:55:08;10.50;77.40
75769;DHT22;64379;48.888;8.330;2022-11-15T07:57:34;10.70;77.00
75769;DHT22;64379;48.888;8.330;2022-11-15T08:00:00;10.80;76.70
75769;DHT22;64379;48.888;8.330;2022-11-15T08:02:25;10.70;76.90
75769;DHT22;64379;48.888;8.330;2022-11-15T08:04:51;10.40;78.20
75769;DHT22;64379;48.888;8.330;2022-11-15T08:07:16;10.40;78.60
75769;DHT22;64379;48.888;8.330;2022-11-15T08:09:42;10.70;77.60
75769;DHT22;64379;48.888;8.330;2022-11-15T08:12:08;10.90;76.80
75769;DHT22;64379;48.888;8.330;2022-11-15T08:14:34;10.80;76.80
75769;DHT22;64379;48.888;8.330;2022-11-15T08:17:00;10.70;77.00
75769;DHT22;64379;48.888;8.330;2022-11-15T08:19:25;10.60;77.30
75769;DHT22;64379;48.888;8.330;2022-11-15T08:21:51;10.50;78.70
75769;DHT22;64379;48.888;8.330;2022-11-15T08:24:16;10.60;79.30
75769;DHT22;64379;48.888;8.330;2022-11-15T08:26:42;10.60;79.40
75769;DHT22;64379;48.888;8.330;2022-11-15T08:29:08;10.90;79.00
75769;DHT22;64379;48.888;8.330;2022-11-15T08:31:34;11.30;77.50
75769;DHT22;64379;48.888;8.330;2022-11-15T08:34:02;11.50;76.30
75769;DHT22;64379;48.888;8.330;2022-11-15T08:36:28;11.90;75.50
75769;DHT22;64379;48.888;8.330;2022-11-15T08:38:53;11.90;75.50
75769;DHT22;64379;48.888;8.330;2022-11-15T08:41:32;12.00;74.70
75769;DHT22;64379;48.888;8.330;2022-11-15T08:43:59;12.10;74.40
75769;DHT22;64379;48.888;8.330;2022-11-15T08:46:25;12.00;74.80
75769;DHT22;64379;48.888;8.330;2022-11-15T08:48:50;11.80;76.40
75769;DHT22;64379;48.888;8.330;2022-11-15T08:51:16;12.10;75.90
75769;DHT22;64379;48.888;8.330;2022-11-15T08:53:41;12.20;75.70
75769;DHT22;64379;48.888;8.330;2022-11-15T08:56:09;12.30;75.20
75769;DHT22;64379;48.888;8.330;2022-11-15T08:58:35;12.50;74.50
75769;DHT22;64379;48.888;8.330;2022-11-15T09:01:01;12.50;74.30
75769;DHT22;64379;48.888;8.330;2022-11-15T09:03:27;12.50;74.80
75769;DHT22;64379;48.888;8.330;2022-11-15T09:06:00;12.50;74.90
75769;DHT22;64379;48.888;8.330;2022-11-15T09:08:29;12.70;73.80
75769;DHT22;64379;48.888;8.330;2022-11-15T09:10:55;12.20;75.10
75769;DHT22;64379;48.888;8.330;2022-11-15T09:13:21;12.20;76.00
75769;DHT22;64379;48.888;8.330;2022-11-15T09:15:47;12.50;75.00
75769;DHT22;64379;48.888;8.330;2022-11-15T09:18:13;12.80;74.10
75769;DHT22;64379;48.888;8.330;2022-11-15T09:20:38;12.50;74.70
75769;DHT22;64379;48.888;8.330;2022-11-15T09:23:04;12.70;75.10
75769;DHT22;64379;48.888;8.330;2022-11-15T09:25:31;12.80;73.90
75769;DHT22;64379;48.888;8.330;2022-11-15T09:27:58;12.80;73.80
75769;DHT22;64379;48.888;8.330;2022-11-15T09:30:25;12.80;74.00
75769;DHT22;64379;48.888;8.330;2022-11-15T09:32:51;12.90;73.80
75769;DHT22;64379;48.888;8.330;2022-11-15T09:35:17;13.00;73.70
75769;DHT22;64379;48.888;8.330;2022-11-15T09:37:43;12.90;74.30
75769;DHT22;64379;48.888;8.330;2022-11-15T09:40:13;13.10;74.30
75769;DHT22;64379;48.888;8.330;2022-11-15T09:42:48;13.10;74.40
75769;DHT22;64379;48.888;8.330;2022-11-15T09:45:48;13.10;74.10
75769;DHT22;64379;48.888;8.330;2022-11-15T09:50:48;13.10;74.00
75769;DHT22;64379;48.888;8.330;2022-11-15T09:53:25;13.30;73.80
75769;DHT22;64379;48.888;8.330;2022-11-15T09:55:59;13.40;74.00
75769;DHT22;64379;48.888;8.330;2022-11-15T09:58:47;13.30;74.30
75769;DHT22;64379;48.888;8.330;2022-11-15T10:01:44;13.50;74.10
75769;DHT22;64379;48.888;8.330;2022-11-15T10:04:13;13.50;74.00
75769;DHT22;64379;48.888;8.330;2022-11-15T10:06:43;13.50;74.30
75769;DHT22;64379;48.888;8.330;2022-11-15T10:09:15;13.50;74.60
75769;DHT22;64379;48.888;8.330;2022-11-15T10:11:42;13.30;74.80
75769;DHT22;64379;48.888;8.330;2022-11-15T10:14:13;13.40;74.30
75769;DHT22;64379;48.888;8.330;2022-11-15T10:17:01;13.30;74.40
75769;DHT22;64379;48.888;8.330;2022-11-15T10:19:45;13.50;73.90
75769;DHT22;64379;48.888;8.330;2022-11-15T10:22:39;13.50;74.80
75769;DHT22;64379;48.888;8.330;2022-11-15T10:27:34;13.60;73.90
75769;DHT22;64379;48.888;8.330;2022-11-15T10:30:00;13.70;73.60
75769;DHT22;64379;48.888;8.330;2022-11-15T10:32:26;13.70;73.80
75769;DHT22;64379;48.888;8.330;2022-11-15T10:34:52;13.80;73.50
75769;DHT22;64379;48.888;8.330;2022-11-15T10:37:31;13.60;73.40
75769;DHT22;64379;48.888;8.330;2022-11-15T10:40:22;13.60;73.70
75769;DHT22;64379;48.888;8.330;2022-11-15T10:42:49;13.60;73.70
75769;DHT22;64379;48.888;8.330;2022-11-15T10:45:31;13.60;73.10
75769;DHT22;64379;48.888;8.330;2022-11-15T10:50:39;13.50;74.50
75769;DHT22;64379;48.888;8.330;2022-11-15T10:53:18;13.50;74.80
75769;DHT22;64379;48.888;8.330;2022-11-15T10:55:50;13.60;74.30
75769;DHT22;64379;48.888;8.330;2022-11-15T11:01:16;13.80;74.30
75769;DHT22;64379;48.888;8.330;2022-11-15T11:03:44;13.80;74.10
75769;DHT22;64379;48.888;8.330;2022-11-15T11:06:17;13.90;74.00
75769;DHT22;64379;48.888;8.330;2022-11-15T11:09:08;13.80;74.40
75769;DHT22;64379;48.888;8.330;2022-11-15T11:16:53;14.30;73.60
75769;DHT22;64379;48.888;8.330;2022-11-15T11:25:44;14.80;73.00
75769;DHT22;64379;48.888;8.330;2022-11-15T11:31:49;14.90;72.20
75769;DHT22;64379;48.888;8.330;2022-11-15T11:34:34;14.90;72.70
75769;DHT22;64379;48.888;8.330;2022-11-15T11:45:20;15.00;72.00
75769;DHT22;64379;48.888;8.330;2022-11-15T11:50:48;15.20;71.60
75769;DHT22;64379;48.888;8.330;2022-11-15T11:53:27;15.30;71.70
75769;DHT22;64379;48.888;8.330;2022-11-15T11:55:58;15.40;71.50
75769;DHT22;64379;48.888;8.330;2022-11-15T11:58:33;15.40;71.90
75769;DHT22;64379;48.888;8.330;2022-11-15T12:01:12;15.40;71.00
75769;DHT22;64379;48.888;8.330;2022-11-15T12:06:44;15.00;72.10
75769;DHT22;64379;48.888;8.330;2022-11-15T12:17:19;15.50;70.20
75769;DHT22;64379;48.888;8.330;2022-11-15T12:19:47;15.50;70.20
75769;DHT22;64379;48.888;8.330;2022-11-15T12:22:22;15.40;71.70
75769;DHT22;64379;48.888;8.330;2022-11-15T12:24:59;15.30;72.10
75769;DHT22;64379;48.888;8.330;2022-11-15T12:27:35;15.60;71.20
75769;DHT22;64379;48.888;8.330;2022-11-15T12:30:17;15.70;71.10
75769;DHT22;64379;48.888;8.330;2022-11-15T12:32:54;15.80;70.40
75769;DHT22;64379;48.888;8.330;2022-11-15T12:35:32;16.00;70.20
75769;DHT22;64379;48.888;8.330;2022-11-15T12:37:59;16.00;69.90
75769;DHT22;64379;48.888;8.330;2022-11-15T12:40:33;16.00;68.90
75769;DHT22;64379;48.888;8.330;2022-11-15T12:45:45;16.10;69.90
75769;DHT22;64379;48.888;8.330;2022-11-15T12:58:41;17.80;65.50
75769;DHT22;64379;48.888;8.330;2022-11-15T13:01:08;17.60;65.70
75769;DHT22;64379;48.888;8.330;2022-11-15T13:03:34;17.70;65.40
75769;DHT22;64379;48.888;8.330;2022-11-15T13:06:04;18.10;64.30
75769;DHT22;64379;48.888;8.330;2022-11-15T13:08:42;18.20;63.60
75769;DHT22;64379;48.888;8.330;2022-11-15T13:11:41;18.00;63.80
75769;DHT22;64379;48.888;8.330;2022-11-15T13:22:22;16.40;67.80
75769;DHT22;64379;48.888;8.330;2022-11-15T13:25:16;16.30;68.30
75769;DHT22;64379;48.888;8.330;2022-11-15T13:27:48;16.10;68.60
75769;DHT22;64379;48.888;8.330;2022-11-15T13:30:20;16.00;69.30
75769;DHT22;64379;48.888;8.330;2022-11-15T13:32:46;16.00;69.80
75769;DHT22;64379;48.888;8.330;2022-11-15T13:35:26;15.70;71.40
75769;DHT22;64379;48.888;8.330;2022-11-15T13:37:55;15.40;72.90
75769;DHT22;64379;48.888;8.330;2022-11-15T13:40:35;15.20;73.10
75769;DHT22;64379;48.888;8.330;2022-11-15T13:46:11;15.60;72.50
75769;DHT22;64379;48.888;8.330;2022-11-15T13:48:39;15.80;70.90
75769;DHT22;64379;48.888;8.330;2022-11-15T13:54:06;15.90;70.10
75769;DHT22;64379;48.888;8.330;2022-11-15T13:56:33;15.80;70.10
75769;DHT22;64379;48.888;8.330;2022-11-15T13:59:01;16.00;70.40
75769;DHT22;64379;48.888;8.330;2022-11-15T14:01:33;16.00;70.20
75769;DHT22;64379;48.888;8.330;2022-11-15T14:03:59;16.00;70.40
75769;DHT22;64379;48.888;8.330;2022-11-15T14:06:28;16.00;70.30
75769;DHT22;64379;48.888;8.330;2022-11-15T14:11:29;15.70;72.50
75769;DHT22;64379;48.888;8.330;2022-11-15T14:16:40;15.80;72.00
75769;DHT22;64379;48.888;8.330;2022-11-15T14:19:11;15.90;72.40
75769;DHT22;64379;48.888;8.330;2022-11-15T14:21:37;15.90;71.00
75769;DHT22;64379;48.888;8.330;2022-11-15T14:24:20;15.80;70.70
75769;DHT22;64379;48.888;8.330;2022-11-15T14:26:46;15.90;70.90
75769;DHT22;64379;48.888;8.330;2022-11-15T14:29:26;15.80;71.00
75769;DHT22;64379;48.888;8.330;2022-11-15T14:34:36;15.50;72.30
75769;DHT22;64379;48.888;8.330;2022-11-15T14:37:02;15.40;71.60
75769;DHT22;64379;48.888;8.330;2022-11-15T14:39:27;15.40;72.60
75769;DHT22;64379;48.888;8.330;2022-11-15T14:41:53;15.40;72.60
75769;DHT22;64379;48.888;8.330;2022-11-15T14:44:18;15.40;72.10
75769;DHT22;64379;48.888;8.330;2022-11-15T14:46:45;15.60;71.90
75769;DHT22;64379;48.888;8.330;2022-11-15T14:49:11;15.50;72.30
75769;DHT22;64379;48.888;8.330;2022-11-15T14:51:38;15.40;72.60
75769;DHT22;64379;48.888;8.330;2022-11-15T14:54:04;15.20;73.30
75769;DHT22;64379;48.888;8.330;2022-11-15T14:56:29;15.20;73.50
75769;DHT22;64379;48.888;8.330;2022-11-15T14:58:55;15.20;73.60
75769;DHT22;64379;48.888;8.330;2022-11-15T15:01:24;15.10;73.90
75769;DHT22;64379;48.888;8.330;2022-11-15T15:03:50;15.20;73.90
75769;DHT22;64379;48.888;8.330;2022-11-15T15:06:18;15.20;73.20
75769;DHT22;64379;48.888;8.330;2022-11-15T15:08:44;15.00;73.90
75769;DHT22;64379;48.888;8.330;2022-11-15T15:11:16;15.00;73.70
75769;DHT22;64379;48.888;8.330;2022-11-15T15:13:43;15.00;73.90
75769;DHT22;64379;48.888;8.330;2022-11-15T15:16:08;15.00;73.50
75769;DHT22;64379;48.888;8.330;2022-11-15T15:18:34;15.00;73.50
75769;DHT22;64379;48.888;8.330;2022-11-15T15:21:00;14.80;74.40
75769;DHT22;64379;48.888;8.330;2022-11-15T15:23:32;14.80;74.30
75769;DHT22;64379;48.888;8.330;2022-11-15T15:25:58;14.80;74.50
75769;DHT22;64379;48.888;8.330;2022-11-15T15:28:24;14.60;74.70
75769;DHT22;64379;48.888;8.330;2022-11-15T15:30:50;14.60;75.20
75769;DHT22;64379;48.888;8.330;2022-11-15T15:33:16;14.60;75.10
75769;DHT22;64379;48.888;8.330;2022-11-15T15:35:42;14.60;75.30
75769;DHT22;64379;48.888;8.330;2022-11-15T15:38:13;14.40;75.80
75769;DHT22;64379;48.888;8.330;2022-11-15T15:40:40;14.40;75.90
75769;DHT22;64379;48.888;8.330;2022-11-15T15:43:06;14.30;76.00
75769;DHT22;64379;48.888;8.330;2022-11-15T15:45:36;14.50;75.70
75769;DHT22;64379;48.888;8.330;2022-11-15T15:48:04;14.30;75.90
75769;DHT22;64379;48.888;8.330;2022-11-15T15:50:33;14.30;76.20
75769;DHT22;64379;48.888;8.330;2022-11-15T15:53:01;14.30;76.30
75769;DHT22;64379;48.888;8.330;2022-11-15T15:55:27;14.30;76.60
75769;DHT22;64379;48.888;8.330;2022-11-15T15:57:53;14.10;76.80
75769;DHT22;64379;48.888;8.330;2022-11-15T16:00:21;14.20;77.00
75769;DHT22;64379;48.888;8.330;2022-11-15T16:02:48;14.20;76.60
75769;DHT22;64379;48.888;8.330;2022-11-15T16:05:14;14.10;77.10
75769;DHT22;64379;48.888;8.330;2022-11-15T16:07:40;14.20;76.80
75769;DHT22;64379;48.888;8.330;2022-11-15T16:10:28;14.10;76.70
75769;DHT22;64379;48.888;8.330;2022-11-15T16:12:55;14.20;76.50
75769;DHT22;64379;48.888;8.330;2022-11-15T16:15:23;14.10;76.40
75769;DHT22;64379;48.888;8.330;2022-11-15T16:17:54;14.10;76.50
75769;DHT22;64379;48.888;8.330;2022-11-15T16:20:52;13.90;77.00
75769;DHT22;64379;48.888;8.330;2022-11-15T16:23:21;13.90;77.30
75769;DHT22;64379;48.888;8.330;2022-11-15T16:25:51;13.70;77.70
75769;DHT22;64379;48.888;8.330;2022-11-15T16:28:29;13.70;77.50
75769;DHT22;64379;48.888;8.330;2022-11-15T16:31:07;13.70;77.60
75769;DHT22;64379;48.888;8.330;2022-11-15T16:33:34;13.50;78.30
75769;DHT22;64379;48.888;8.330;2022-11-15T16:36:00;13.60;78.10
75769;DHT22;64379;48.888;8.330;2022-11-15T16:38:25;13.50;78.20
75769;DHT22;64379;48.888;8.330;2022-11-15T16:40:51;13.50;78.40
75769;DHT22;64379;48.888;8.330;2022-11-15T16:43:17;13.50;78.10
75769;DHT22;64379;48.888;8.330;2022-11-15T16:45:45;13.60;77.70
75769;DHT22;64379;48.888;8.330;2022-11-15T16:48:25;13.60;77.50
75769;DHT22;64379;48.888;8.330;2022-11-15T16:50:55;13.60;77.50
75769;DHT22;64379;48.888;8.330;2022-11-15T16:53:21;13.50;77.90
75769;DHT22;64379;48.888;8.330;2022-11-15T16:55:47;13.50;77.80
75769;DHT22;64379;48.888;8.330;2022-11-15T16:58:13;13.40;77.70
75769;DHT22;64379;48.888;8.330;2022-11-15T17:00:39;13.20;78.20
75769;DHT22;64379;48.888;8.330;2022-11-15T17:03:04;13.10;78.40
75769;DHT22;64379;48.888;8.330;2022-11-15T17:05:30;13.10;78.70
75769;DHT22;64379;48.888;8.330;2022-11-15T17:07:56;13.10;79.00
75769;DHT22;64379;48.888;8.330;2022-11-15T17:10:25;13.20;78.50
75769;DHT22;64379;48.888;8.330;2022-11-15T17:12:51;13.20;78.40
75769;DHT22;64379;48.888;8.330;2022-11-15T17:15:17;13.10;78.50
75769;DHT22;64379;48.888;8.330;2022-11-15T17:17:44;13.10;78.50
75769;DHT22;64379;48.888;8.330;2022-11-15T17:20:15;13.00;78.80
75769;DHT22;64379;48.888;8.330;2022-11-15T17:22:41;13.30;77.90
75769;DHT22;64379;48.888;8.330;2022-11-15T17:25:07;13.20;77.90
75769;DHT22;64379;48.888;8.330;2022-11-15T17:27:33;13.10;78.20
75769;DHT22;64379;48.888;8.330;2022-11-15T17:29:58;13.10;78.60
75769;DHT22;64379;48.888;8.330;2022-11-15T17:32:24;13.10;78.70
75769;DHT22;64379;48.888;8.330;2022-11-15T17:34:52;13.10;78.60
75769;DHT22;64379;48.888;8.330;2022-11-15T17:37:17;13.10;78.50
75769;DHT22;64379;48.888;8.330;2022-11-15T17:39:43;13.10;78.60